Date,TemperatureHighF,TemperatureAvgF,TemperatureLowF,DewpointHighF,DewpointAvgF,DewpointLowF,HumidityHigh,HumidityAvg,HumidityLow,PressureMaxIn,PressureMinIn,WindSpeedMaxMPH,WindSpeedAvgMPH,GustSpeedMaxMPH,PrecipitationSumIn
2013-1-1,43.6,40.0,35.7,40.9,34.5,13.8,93,81,36,30.78,30.63,15,0,15,0.56
2013-1-2,37.5,32.2,28.8,35.6,29.8,26.2,93,91,85,30.88,30.59,9,0,9,0.02
2013-1-3,31.5,27.5,21.7,29.7,24.6,15.0,94,89,74,31.05,30.82,8,0,8,0.01
2013-1-4,30.9,23.2,18.3,17.0,14.3,9.8,84,70,43,31.17,31.03,12,0,13,0.00
2013-1-5,48.0,34.6,19.9,27.5,15.6,5.0,81,49,24,31.15,30.85,11,0,11,0.00
2013-1-6,36.6,31.7,28.2,31.9,27.6,21.9,93,85,70,30.95,30.77,13,0,13,0.04
2013-1-7,46.7,33.6,22.2,27.8,21.6,9.7,87,63,30,31.17,30.93,12,0,12,0.00
2013-1-8,47.4,36.0,27.3,33.8,24.0,10.8,87,63,40,31.17,31.04,5,0,5,0.00
2013-1-9,52.9,47.4,36.4,47.4,42.8,32.9,94,84,71,31.14,31.05,7,0,7,0.00
2013-1-10,56.3,49.5,40.9,50.3,45.9,35.9,94,87,77,31.17,31.00,13,0,13,0.00
2013-1-11,51.2,45.9,40.3,49.8,44.3,35.7,95,94,82,31.00,30.80,6,0,6,0.17
2013-1-12,62.4,55.8,50.8,56.2,52.7,49.2,96,90,76,30.83,30.69,11,0,11,0.01
2013-1-13,62.5,53.5,49.1,52.8,49.9,47.0,94,88,63,30.76,30.64,9,0,9,0.05
2013-1-14,53.8,51.4,42.0,52.4,50.0,40.4,96,95,94,30.83,30.66,5,0,6,1.82
2013-1-15,51.4,46.4,43.4,48.4,44.6,41.5,95,94,86,30.84,30.67,9,0,9,2.44
2013-1-16,56.9,47.7,44.6,49.4,44.3,40.9,96,89,56,30.69,30.56,12,0,12,0.40
2013-1-17,45.4,36.7,23.1,43.8,35.0,20.8,95,93,91,30.92,30.51,10,0,10,1.09
2013-1-18,32.1,24.9,18.8,24.8,18.6,12.9,91,77,56,31.33,30.92,9,0,12,0.00
2013-1-19,44.2,32.9,22.9,25.4,19.3,12.6,83,60,32,31.26,30.82,6,0,6,0.16
2013-1-20,41.2,36.4,32.2,28.6,22.9,11.4,76,59,32,30.87,30.75,14,0,14,0.12
2013-1-21,40.1,30.4,16.6,25.5,17.5,3.6,77,59,46,30.81,30.67,17,1,18,0.05
2013-1-22,17.0,12.8,7.3,5.3,-2.1,-8.1,68,51,36,31.10,30.70,25,2,25,0.00
2013-1-23,31.5,21.9,11.9,24.2,12.0,-1.7,78,65,52,31.12,30.80,14,0,14,0.00
2013-1-24,32.1,20.7,13.2,25.5,10.0,-3.5,82,63,42,31.24,30.72,19,2,19,0.00
2013-1-25,36.6,20.8,10.0,34.5,15.9,1.6,93,81,62,31.27,30.80,15,0,15,0.00
2013-1-26,34.4,28.4,23.1,27.3,18.4,-0.6,89,68,24,31.08,30.77,18,1,18,0.10
2013-1-27,35.1,30.1,23.8,27.4,18.3,-0.6,87,64,26,31.23,31.05,4,0,4,0.25
2013-1-28,51.9,42.9,27.9,41.9,36.7,24.3,93,79,67,31.16,30.89,9,0,9,0.49
2013-1-29,63.1,53.8,46.3,49.8,45.1,39.1,94,74,48,30.89,30.58,11,0,11,0.00
2013-1-30,54.0,49.6,36.1,52.9,48.0,32.3,96,94,86,30.58,30.08,18,1,19,2.33
2013-1-31,36.0,23.1,18.0,32.4,18.4,14.1,96,82,74,30.81,30.10,18,1,18,0.00
2013-2-1,29.2,14.2,8.3,23.4,7.4,-3.0,89,74,53,31.22,30.65,18,0,18,0.00
2013-2-2,30.9,23.2,9.8,24.9,14.2,-5.0,92,70,40,31.21,30.73,11,0,11,0.06
2013-2-3,26.3,22.8,17.1,23.2,19.3,13.4,90,86,82,30.80,30.65,19,1,19,0.00
2013-2-4,41.0,29.8,16.6,25.8,19.5,11.1,87,65,52,30.90,30.65,15,0,18,0.22
2013-2-5,39.9,36.4,33.7,32.1,26.6,18.8,89,68,49,30.71,30.58,17,0,17,0.07
2013-2-6,43.0,36.9,29.4,31.6,20.8,11.2,81,55,29,30.98,30.66,16,0,16,0.02
2013-2-7,41.0,34.0,30.0,32.2,26.7,17.8,93,75,51,31.01,30.70,4,0,4,0.10
2013-2-8,39.2,33.4,23.4,37.8,30.3,19.9,95,89,67,30.83,30.60,19,2,20,0.65
2013-2-9,42.7,32.8,21.9,20.3,12.9,1.8,87,47,26,31.08,30.81,18,2,19,0.00
2013-2-10,46.0,36.3,31.8,35.6,22.3,12.2,94,59,39,31.11,30.80,10,0,10,0.13
2013-2-11,48.5,42.7,37.0,47.1,34.2,14.0,95,75,36,30.82,30.65,13,0,13,0.23
2013-2-12,47.8,36.7,29.2,30.4,20.3,7.4,90,54,22,30.82,30.61,15,0,17,0.00
2013-2-13,38.4,31.9,25.7,36.8,29.7,23.4,94,91,87,30.61,30.32,15,0,15,0.37
2013-2-14,43.3,31.3,20.4,28.7,22.6,16.5,92,72,38,30.80,30.59,10,0,11,0.02
2013-2-15,48.4,35.5,23.6,32.6,27.3,20.2,89,73,46,30.81,30.65,15,0,15,0.01
2013-2-16,23.7,19.3,11.6,20.3,15.2,5.8,87,84,77,30.76,30.62,14,0,14,0.00
2013-2-17,19.7,14.3,8.0,9.0,5.6,1.7,84,69,52,31.06,30.76,20,1,20,0.00
2013-2-18,44.6,31.5,18.9,30.2,19.1,5.1,75,60,49,31.13,30.83,11,0,11,0.11
2013-2-19,38.7,30.8,22.4,33.0,22.1,8.7,91,71,52,30.83,30.58,18,1,18,0.18
2013-2-20,33.4,24.4,18.4,11.9,5.0,-1.4,72,45,25,30.95,30.70,23,3,23,0.00
2013-2-21,50.4,38.4,21.5,28.1,6.8,-13.4,86,30,13,30.92,30.76,10,0,10,0.04
2013-2-22,36.9,31.3,28.0,34.3,29.0,24.6,94,91,84,30.96,30.77,1,0,1,0.27
2013-2-23,50.0,43.5,37.0,45.4,40.4,28.4,95,89,65,30.80,30.48,6,0,6,0.46
2013-2-24,43.9,35.8,29.4,34.0,24.6,18.1,84,65,44,30.80,30.48,15,0,15,0.00
2013-2-25,40.3,33.3,27.2,25.3,19.3,1.4,80,57,24,30.86,30.69,4,0,4,0.00
2013-2-26,33.8,31.0,25.9,32.3,29.1,21.7,94,92,80,30.76,30.27,14,0,14,0.72
2013-2-27,44.0,33.9,26.6,34.2,27.3,22.9,100,77,56,30.51,30.34,12,0,12,0.00
2013-2-28,28.3,23.6,21.0,23.8,19.7,17.5,92,85,79,30.67,30.37,16,0,16,0.00
2013-3-1,26.5,23.7,21.1,23.9,21.1,18.6,92,90,85,30.71,30.64,12,0,13,0.00
2013-3-2,26.6,21.7,15.1,21.8,18.4,11.7,90,87,80,30.74,30.60,12,0,12,0.00
2013-3-3,21.4,15.0,11.3,15.5,10.7,7.2,87,83,74,30.83,30.71,16,1,16,0.00
2013-3-4,37.5,26.4,13.6,28.1,13.5,8.6,89,61,33,30.92,30.76,15,1,16,0.16
2013-3-5,38.1,35.8,24.5,35.8,30.7,21.4,94,83,58,30.77,30.31,15,0,15,1.57
2013-3-6,24.4,19.4,16.3,21.4,16.8,13.4,90,89,87,30.91,30.33,20,3,20,0.00
2013-3-7,27.4,21.9,18.5,25.4,19.6,15.7,92,91,89,31.10,30.91,14,1,14,0.07
2013-3-8,33.7,26.1,16.1,25.6,18.9,10.5,89,75,40,31.14,31.03,16,1,16,0.02
2013-3-9,55.4,42.8,32.2,30.5,22.2,9.5,61,44,32,31.08,30.90,8,0,8,0.00
2013-3-10,57.2,45.3,36.9,35.0,29.1,24.1,67,53,40,30.97,30.81,5,0,10,0.00
2013-3-11,44.7,41.3,39.3,43.3,38.5,30.5,95,90,67,30.83,30.53,13,0,13,0.63
2013-3-12,45.4,38.0,30.6,44.1,33.3,24.1,100,83,63,30.77,30.42,14,0,14,0.57
2013-3-13,31.2,25.9,17.3,25.5,18.8,11.2,87,74,61,30.94,30.71,15,0,16,0.03
2013-3-14,34.7,21.1,13.4,17.1,11.1,6.2,84,67,42,31.07,30.91,18,1,19,0.00
2013-3-30,49.5,39.8,31.6,35.6,31.8,28.7,90,74,53,30.96,30.76,1,0,6,0.00
2013-3-31,49.4,43.1,38.0,44.2,39.7,34.0,100,88,76,30.78,30.52,2,0,11,1.02
2013-4-1,50.6,42.4,36.0,42.4,34.1,27.8,93,73,58,30.64,30.52,3,0,12,0.00
2013-4-2,44.7,35.1,25.8,28.5,21.1,14.6,82,59,34,30.90,30.63,4,0,14,0.00
2013-4-3,47.2,36.0,25.9,22.3,15.5,10.9,58,43,32,31.00,30.85,6,0,13,0.00
2013-4-4,35.3,31.2,26.7,31.3,22.5,10.9,93,72,42,31.00,30.71,1,0,14,0.00
2013-4-5,42.2,35.9,31.6,34.4,31.4,29.3,94,84,65,30.82,30.64,6,0,13,0.42
2013-4-6,59.9,47.3,35.6,36.8,31.1,25.7,76,54,38,30.91,30.78,12,0,13,0.00
2013-4-7,62.7,49.7,36.8,42.2,36.6,29.9,80,62,44,30.89,30.73,11,0,11,0.00
2013-4-8,69.9,56.6,45.9,49.7,43.8,38.0,77,63,43,30.83,30.66,12,0,12,0.00
2013-4-9,73.5,61.2,49.9,51.7,48.1,43.6,80,64,42,30.82,30.67,15,0,15,0.00
2013-4-10,79.5,64.1,54.6,53.5,49.4,43.9,79,61,31,30.71,30.53,13,0,13,0.00
2013-4-11,69.8,60.5,50.6,55.9,51.1,46.3,94,73,49,30.57,30.25,16,1,16,0.95
2013-4-12,64.8,53.1,41.6,55.8,45.5,32.5,94,77,45,30.52,30.20,11,0,12,1.49
2013-4-13,58.6,47.3,38.9,35.4,31.6,24.9,78,56,30,30.75,30.46,17,0,17,0.00
2013-4-14,67.8,54.3,43.6,43.0,35.2,26.7,88,50,34,30.76,30.57,18,1,18,0.01
2013-4-15,58.9,49.2,44.4,52.9,46.3,42.2,95,90,76,30.86,30.57,9,0,12,0.18
2013-4-16,73.6,58.8,49.0,55.5,51.1,46.5,95,78,44,30.93,30.80,11,0,11,0.00
2013-4-17,59.0,56.2,52.2,55.9,53.2,49.6,93,90,83,30.89,30.80,6,0,7,0.18
2013-4-18,57.6,57.6,57.6,54.7,54.7,54.7,90,90,90,30.88,30.88,0,0,0,0.00
2013-4-19,56.9,51.5,33.9,55.5,49.7,29.5,95,93,82,30.58,30.34,13,1,17,1.12
2013-4-20,46.1,36.3,26.5,30.5,26.1,20.6,84,67,49,31.05,30.56,18,1,18,0.00
2013-4-21,53.6,41.8,34.0,32.1,26.9,21.2,75,56,39,31.18,30.99,13,1,13,0.00
2013-4-22,57.7,43.5,33.7,39.9,31.8,24.5,87,65,43,31.13,30.91,12,0,13,0.00
2013-4-23,65.2,49.2,33.8,42.5,34.2,22.7,74,57,38,30.95,30.75,13,0,13,0.00
2013-4-24,71.2,55.2,43.3,52.6,45.2,38.8,90,71,45,30.76,30.59,11,0,12,0.05
2013-4-25,57.9,43.3,30.3,39.9,29.5,15.5,91,63,23,31.04,30.67,15,1,15,0.01
2013-4-26,62.0,49.2,36.1,35.3,30.4,22.7,62,49,34,31.11,30.98,14,0,15,0.00
2013-4-27,53.8,47.1,43.4,45.2,40.6,34.2,93,79,59,31.02,30.90,9,0,9,0.26
2013-4-28,48.6,44.2,40.4,47.1,42.2,37.5,96,93,88,30.93,30.73,8,0,10,1.36
2013-4-29,62.5,52.2,45.5,55.4,47.3,43.9,96,84,65,30.75,30.59,11,0,11,0.06
2013-4-30,68.6,56.3,50.1,54.7,50.5,48.1,94,82,56,30.80,30.60,10,0,10,0.00
2013-5-1,54.9,50.2,46.8,49.4,46.4,44.5,93,87,73,30.97,30.76,18,1,18,0.00
2013-5-2,55.3,48.7,45.2,51.4,46.6,43.6,95,92,84,30.99,30.89,19,1,19,0.05
2013-5-3,54.7,46.6,43.3,45.6,43.1,39.9,95,88,69,30.91,30.78,20,2,20,0.02
2013-5-4,44.6,40.2,35.7,41.2,37.7,32.1,100,91,78,30.81,30.72,19,3,20,0.06
2013-5-5,46.1,42.1,38.1,44.4,40.6,36.5,95,94,93,30.76,30.51,36,8,36,1.59
2013-5-6,57.7,47.5,41.8,48.3,42.6,36.6,95,84,50,30.61,30.45,22,2,22,1.53
2013-5-7,54.6,46.0,41.1,45.1,41.5,36.6,93,84,63,30.63,30.50,11,0,11,0.36
2013-5-8,55.5,49.6,44.5,49.2,45.9,42.3,93,87,76,30.72,30.59,10,0,10,0.07
2013-5-9,70.2,57.0,46.0,52.6,47.1,42.4,92,71,48,30.75,30.68,11,0,11,0.00
2013-5-10,73.6,59.6,53.8,57.3,51.2,43.2,93,75,50,30.73,30.55,10,0,10,0.58
2013-5-11,65.0,55.0,49.3,55.1,50.6,45.2,93,85,66,30.60,30.48,11,0,11,0.10
2013-5-12,52.9,45.4,37.6,45.2,36.4,26.8,92,72,51,30.79,30.50,15,0,15,0.02
2013-5-13,52.9,42.2,32.3,32.5,27.5,25.2,78,57,39,30.88,30.73,10,0,10,0.00
2013-5-14,69.0,53.0,36.0,46.1,35.3,26.2,70,53,34,30.95,30.65,12,0,12,0.00
2013-5-15,77.7,65.7,57.5,54.9,48.9,43.4,73,56,35,30.72,30.58,14,0,15,0.00
2013-5-16,71.5,62.4,56.2,53.2,46.4,37.1,67,56,43,30.67,30.54,9,0,9,0.00
2013-5-17,76.7,63.3,56.5,59.9,53.4,45.4,90,71,48,30.70,30.61,10,0,10,0.08
2013-5-18,58.1,56.4,55.4,55.2,53.8,51.1,95,91,81,30.76,30.65,7,0,7,0.56
2013-5-19,68.3,58.2,53.0,64.0,56.1,51.0,96,93,79,30.75,30.64,6,0,6,0.61
2013-5-20,74.0,62.2,54.6,61.4,56.9,52.9,96,84,60,30.81,30.63,6,0,7,0.17
2013-5-21,77.5,65.2,54.6,63.6,58.0,52.4,93,79,51,30.66,30.54,9,0,10,0.81
2013-5-22,81.5,63.1,54.5,64.8,56.7,50.7,93,81,53,30.62,30.48,1,0,1,0.44
2013-5-23,70.2,58.8,50.6,57.8,53.1,47.5,95,83,55,30.59,30.48,15,0,15,0.30
2013-5-24,51.5,46.7,39.6,47.5,39.8,32.5,92,78,56,30.96,30.49,17,1,18,0.28
2013-5-25,64.1,49.3,36.8,39.5,33.7,24.2,85,58,27,31.01,30.86,15,0,15,0.00
2013-5-26,62.6,52.8,42.4,45.8,39.2,26.4,81,61,41,30.98,30.84,12,0,12,0.03
2013-5-27,72.3,60.4,48.5,57.0,50.4,42.6,83,70,52,30.93,30.73,10,0,10,0.00
2013-5-28,76.3,63.5,54.2,59.1,54.8,50.5,89,74,47,30.83,30.74,11,0,11,0.00
2013-5-29,79.4,65.8,53.3,61.7,56.1,51.0,93,73,45,30.84,30.73,10,0,10,0.00
2013-5-30,78.4,65.8,56.4,61.1,56.3,52.8,91,73,51,30.87,30.74,7,0,7,0.00
2013-5-31,76.8,66.5,57.0,61.4,57.1,52.8,91,73,55,30.82,30.68,12,0,12,0.00
2013-6-1,77.0,66.2,57.7,63.8,58.1,54.9,92,76,57,30.73,30.58,9,0,9,0.00
2013-6-2,65.3,60.7,57.5,60.7,58.0,54.6,94,91,84,30.64,30.53,6,0,6,0.63
2013-6-3,73.0,62.6,55.9,59.5,56.0,52.8,95,80,55,30.59,30.48,10,0,10,0.00
2013-6-4,71.6,61.5,54.9,61.6,56.0,52.1,92,83,67,30.73,30.57,6,0,6,0.00
2013-6-5,69.7,61.9,56.3,62.0,57.5,53.8,94,86,73,30.74,30.58,7,0,7,0.16
2013-6-6,70.7,62.0,57.2,65.0,59.2,55.1,95,91,78,30.59,30.39,6,0,6,0.69
2013-6-7,66.4,60.0,56.7,61.1,57.1,55.1,95,90,77,30.49,30.30,12,0,12,0.58
2013-6-8,71.5,61.8,52.5,59.7,55.8,50.5,95,82,61,30.70,30.46,6,0,6,0.23
2013-6-9,75.3,64.0,56.7,65.8,58.8,52.9,95,84,62,30.78,30.63,11,0,11,0.54
2013-6-10,67.8,61.8,58.6,63.6,58.0,52.8,96,88,62,30.64,30.50,10,0,12,0.59
2013-6-11,70.7,61.6,55.2,59.4,55.6,51.5,93,81,64,30.66,30.55,12,0,12,0.07
2013-6-12,79.0,69.2,58.7,67.7,61.9,54.4,89,78,63,30.65,30.52,11,0,13,0.02
2013-6-13,72.3,67.0,64.8,61.1,56.3,49.6,78,69,57,30.52,30.39,13,0,13,0.01
2013-6-23,75.6,66.0,56.6,64.0,59.0,54.3,93,79,60,30.84,30.73,0,0,1,0.00
2013-6-24,75.3,65.0,59.6,65.6,60.3,55.1,95,85,66,30.88,30.73,1,0,9,0.00
2013-6-25,75.5,66.8,58.7,65.2,61.2,56.6,95,83,64,30.80,30.62,1,0,6,0.00
2013-6-26,77.6,66.2,59.7,66.5,60.7,54.7,91,83,65,30.67,30.53,0,0,5,0.00
2013-6-27,72.3,65.1,57.6,66.3,61.0,54.2,94,87,77,30.54,30.40,1,0,11,0.00
2013-6-28,77.2,66.0,58.2,64.3,60.3,54.2,91,82,59,30.42,30.24,1,0,10,0.00
2013-6-29,75.8,64.4,58.0,61.9,55.7,49.5,92,74,49,30.35,30.25,1,0,5,0.01
2013-6-30,76.8,65.6,58.5,62.6,56.9,49.9,94,74,47,30.42,30.29,12,0,12,0.02
2013-7-1,72.3,62.4,58.2,65.2,59.3,56.5,95,90,73,30.60,30.38,6,0,6,0.01
2013-7-2,73.0,63.1,58.5,65.3,60.2,56.5,95,90,74,30.75,30.55,9,0,9,0.04
2013-7-3,65.0,61.0,55.9,63.8,59.5,54.2,96,95,91,30.88,30.72,12,0,12,0.03
2013-7-4,65.0,60.9,55.9,63.7,59.6,54.5,96,95,94,30.90,30.80,10,0,10,0.02
2013-7-5,73.3,63.6,60.2,65.7,61.0,58.4,96,92,74,30.89,30.79,11,0,13,0.01
2013-7-6,67.2,63.4,61.3,64.2,61.6,60.1,96,94,86,30.86,30.76,10,0,10,0.01
2013-7-7,68.5,63.9,61.3,67.1,62.3,59.9,96,95,89,30.80,30.72,6,0,6,0.00
2013-7-8,75.4,65.9,59.2,64.9,60.7,57.1,96,84,61,30.83,30.75,10,0,10,0.01
2013-7-9,78.5,68.4,62.2,66.8,62.0,57.1,95,81,57,30.80,30.68,5,0,5,0.01
2013-7-10,76.3,66.2,61.1,70.0,63.2,59.7,96,90,77,30.73,30.55,6,0,6,0.01
2013-7-11,69.8,64.3,60.1,66.5,61.8,58.6,96,92,81,30.61,30.51,2,0,2,0.01
2013-7-12,75.2,65.3,57.5,63.1,58.9,54.5,94,81,57,30.64,30.52,10,0,10,0.01
2013-7-13,66.8,60.8,56.8,61.4,58.3,55.4,95,92,80,30.79,30.62,13,0,13,0.00
2013-7-14,66.0,62.9,61.2,64.2,61.4,60.0,96,95,92,30.94,30.72,15,0,16,0.01
2013-7-15,76.8,66.2,60.7,67.2,62.1,59.5,96,87,66,30.98,30.90,9,0,9,0.01
2013-7-16,80.5,68.9,59.0,68.4,61.7,55.6,95,80,53,31.00,30.87,9,0,10,0.01
2013-7-17,80.3,68.0,61.4,70.2,63.2,59.0,95,86,63,30.96,30.80,11,0,11,0.00
2013-7-18,81.4,70.6,61.1,71.6,64.8,59.7,95,83,58,30.84,30.67,6,0,6,0.01
2013-7-19,79.1,68.6,62.4,68.5,64.2,58.4,94,86,66,30.72,30.58,5,0,5,0.01
2013-7-20,75.7,67.4,62.2,67.6,63.8,60.7,96,89,70,30.66,30.55,6,0,7,0.01
2013-7-21,78.2,67.3,61.7,66.5,62.6,56.5,94,85,65,30.65,30.54,6,0,6,0.00
2013-7-22,78.7,67.3,60.4,68.0,62.5,58.0,93,85,62,30.60,30.45,6,0,10,0.00
2013-7-23,74.0,65.1,60.4,64.1,60.4,58.1,94,85,64,30.52,30.41,9,0,9,0.00
2013-7-24,77.6,66.7,61.5,65.8,61.0,58.3,93,83,58,30.50,30.39,9,0,10,0.01
2013-7-25,75.3,64.6,56.8,62.7,57.7,52.8,95,79,59,30.68,30.46,8,0,10,0.00
2013-7-26,76.7,64.6,56.0,64.9,59.3,52.8,95,84,66,30.74,30.64,9,0,10,0.00
2013-7-27,71.3,63.6,60.2,64.4,60.5,58.4,95,90,69,30.65,30.52,3,0,3,0.01
2013-7-28,72.0,62.2,56.5,62.3,58.0,52.5,96,87,65,30.71,30.52,3,0,4,0.01
2013-7-29,74.5,61.8,53.5,61.2,53.6,41.8,91,75,57,30.87,30.66,5,0,6,0.00
2013-7-30,75.5,63.7,55.1,63.5,56.6,43.5,92,78,63,30.92,30.77,4,0,4,0.00
2013-7-31,63.7,60.0,56.2,61.6,57.8,53.6,95,92,84,30.83,30.65,2,0,2,0.00
2013-8-1,70.5,63.8,59.4,63.4,60.2,56.8,95,88,72,30.65,30.55,9,0,9,0.01
2013-8-2,76.0,64.6,55.9,62.6,58.3,52.7,93,81,56,30.69,30.59,10,0,10,0.00
2013-8-3,76.0,66.6,61.6,63.9,60.1,57.9,94,81,61,30.69,30.60,5,0,5,0.01
2013-8-4,71.7,64.4,57.6,62.2,57.9,53.6,93,80,58,30.71,30.55,11,0,11,0.00
2013-8-5,76.2,63.8,56.5,64.2,58.2,52.9,91,82,61,30.76,30.60,9,0,9,0.00
2013-8-6,74.6,66.7,59.7,66.5,60.8,53.4,93,82,66,30.66,30.55,3,0,3,0.00
2013-8-7,67.0,63.5,61.9,64.1,61.4,59.5,95,93,88,30.71,30.60,7,0,9,0.01
2013-8-8,73.5,66.7,60.9,68.4,63.8,59.5,96,91,80,30.69,30.61,1,0,1,0.00
2013-8-9,81.5,69.2,62.6,69.4,64.4,60.5,94,85,63,30.71,30.61,4,0,4,0.00
2013-8-10,78.0,67.5,60.2,68.2,63.2,58.7,95,87,66,30.76,30.65,6,0,6,0.01
2013-8-11,78.0,68.2,61.1,67.7,62.9,58.9,95,84,69,30.80,30.68,7,0,7,0.00
2013-8-12,77.0,67.1,62.0,67.7,63.3,60.2,95,88,68,30.72,30.59,5,0,5,0.00
2013-8-13,74.5,65.7,60.9,65.8,61.9,57.3,95,88,70,30.59,30.47,11,0,11,0.00
2013-8-14,66.9,59.0,52.8,57.3,52.8,49.1,92,81,59,30.76,30.50,13,0,14,0.01
2013-8-15,65.2,55.7,50.4,57.2,51.2,46.7,92,85,73,30.87,30.72,4,0,4,0.00
2013-8-16,69.2,57.5,48.7,57.6,51.9,46.2,93,82,59,30.84,30.74,5,0,5,0.00
2013-8-17,67.8,57.7,49.5,58.4,53.0,43.2,94,85,64,30.86,30.77,9,0,9,0.01
2013-8-18,71.7,61.5,56.1,64.5,58.5,54.4,95,90,67,30.87,30.76,2,0,2,0.00
2013-8-19,65.7,60.9,57.6,62.7,59.0,55.8,95,93,86,30.82,30.74,2,0,2,0.00
2013-8-20,72.8,64.1,57.0,65.8,60.7,55.6,96,89,72,30.82,30.75,5,0,5,0.00
2013-8-21,72.5,63.8,58.5,65.9,60.8,57.1,95,90,78,30.89,30.76,3,0,3,0.00
2013-8-22,76.1,65.6,59.5,64.5,60.3,57.2,94,84,61,30.83,30.68,6,0,6,0.01
2013-8-23,72.5,64.4,59.5,64.8,60.3,56.3,93,87,71,30.73,30.64,9,0,10,0.00
2013-8-24,75.0,62.8,54.5,61.1,55.4,49.9,94,78,54,30.95,30.71,10,0,10,0.00
2013-8-25,72.2,60.4,51.5,58.9,53.3,49.2,93,79,56,31.08,30.93,5,0,5,0.00
2013-8-26,72.0,61.9,52.3,60.0,55.2,49.8,92,80,60,30.98,30.77,11,0,11,0.00
2013-8-27,75.0,65.4,59.0,64.5,60.1,56.4,93,83,66,30.79,30.66,10,0,10,0.00
2013-8-28,77.5,68.1,62.9,65.6,62.4,59.8,91,82,63,30.67,30.55,11,0,11,0.01
2013-8-29,77.4,68.7,64.0,66.2,63.3,61.3,93,84,65,30.64,30.52,12,0,12,0.00
2013-8-30,77.0,67.3,62.0,68.2,63.5,60.5,96,88,71,30.69,30.55,3,0,3,0.00
2013-8-31,76.0,66.8,61.7,67.0,62.8,59.9,94,87,69,30.58,30.50,7,0,7,0.00
2013-9-1,78.9,67.1,61.7,68.0,62.3,58.6,94,85,66,30.55,30.42,7,0,7,0.00
2013-9-2,76.5,66.2,59.6,66.1,61.2,57.3,95,84,68,30.56,30.47,7,0,7,0.00
2013-9-3,70.3,63.2,56.2,61.9,58.3,52.0,93,84,64,30.66,30.45,10,0,10,0.00
2013-9-4,76.0,63.9,55.5,60.5,55.7,49.6,92,76,47,30.78,30.63,7,0,7,0.00
2013-9-5,73.0,63.2,55.8,57.6,51.2,40.9,88,68,34,30.81,30.73,7,0,7,0.00
2013-9-6,74.3,62.8,55.9,61.5,55.9,50.5,92,79,61,30.85,30.73,6,0,6,0.00
2013-9-7,73.3,62.1,54.5,61.4,56.4,52.5,94,83,58,30.80,30.64,7,0,7,0.00
2013-9-8,72.3,64.4,59.9,61.6,58.9,56.7,91,83,66,30.68,30.58,11,0,11,0.00
2013-9-9,77.3,66.3,59.6,66.1,60.7,56.1,92,83,66,30.79,30.65,6,0,6,0.00
2013-9-10,78.3,67.3,59.6,66.8,60.7,56.4,92,80,59,30.88,30.77,5,0,5,0.00
2013-9-11,75.8,67.7,61.9,65.7,61.3,53.2,92,81,65,30.86,30.71,9,0,9,0.00
2013-9-12,75.8,65.6,58.9,65.8,60.9,55.3,93,85,66,30.71,30.48,9,0,9,0.00
2013-9-13,64.1,57.5,49.6,57.9,51.6,44.5,92,81,60,30.62,30.44,12,0,12,0.00
2013-9-14,64.3,53.4,42.4,53.8,46.8,38.6,92,79,60,30.81,30.60,10,0,10,0.00
2013-9-15,67.4,57.7,49.2,56.7,52.5,46.7,95,83,64,30.90,30.78,7,0,7,0.00
2013-9-16,71.9,60.2,54.5,58.8,54.0,50.5,92,80,60,30.84,30.75,7,0,7,0.00
2013-9-17,62.9,55.0,51.2,52.5,49.9,46.8,92,83,65,30.98,30.82,7,0,7,0.00
2013-9-18,63.9,54.5,49.3,56.1,50.9,46.3,94,88,73,30.97,30.85,6,0,6,0.00
2013-9-19,66.1,58.8,54.8,60.2,55.7,-99.9,95,91,77,30.86,30.75,5,-4,5,0.00
2013-9-20,71.3,62.9,57.6,61.8,58.5,55.0,94,86,68,30.75,30.54,7,0,7,0.00
2013-9-21,61.6,57.6,53.1,59.3,55.9,50.9,95,94,92,30.54,30.36,10,0,12,0.00
2013-9-22,61.8,53.6,46.7,51.2,48.0,43.9,93,82,64,30.61,30.42,10,0,10,0.00
2013-9-23,67.0,55.0,46.5,54.8,50.0,43.4,93,84,62,30.74,30.59,6,0,6,0.00
2013-9-24,69.4,58.7,47.5,59.5,52.9,45.3,93,82,62,30.79,30.56,5,0,6,0.00
2013-9-25,57.5,54.7,52.6,55.3,52.5,50.7,95,92,90,30.59,30.51,3,0,3,0.00
2013-9-26,61.6,54.6,50.4,55.6,51.3,46.7,95,89,72,30.75,30.56,6,0,6,0.00
2013-9-27,66.0,56.1,46.1,55.0,49.5,43.9,93,80,55,30.85,30.73,10,0,10,0.00
2013-9-28,64.1,54.9,48.8,54.6,49.9,45.9,92,84,61,30.92,30.81,12,0,12,0.00
2013-9-29,62.9,53.7,45.2,53.8,48.5,42.5,93,83,64,30.87,30.69,11,0,11,0.00
2013-9-30,64.3,54.9,50.1,54.9,50.9,47.8,93,87,68,30.78,30.68,5,0,6,0.00
2013-10-1,66.5,56.8,50.0,57.2,51.3,47.8,93,83,63,30.84,30.74,6,0,6,0.00
2013-10-2,67.5,58.7,51.5,56.6,52.2,48.7,91,80,59,30.85,30.76,7,0,7,0.00
2013-10-3,71.2,60.8,54.6,59.3,54.8,51.5,92,81,58,30.82,30.72,4,0,5,0.00
2013-10-4,70.0,62.1,56.5,59.5,56.3,53.0,92,82,64,30.82,30.73,11,0,11,0.00
2013-10-5,75.8,63.5,57.1,62.3,57.1,52.8,90,80,61,30.84,30.67,9,0,9,0.00
2013-10-6,70.1,62.4,57.3,60.2,57.1,54.7,92,83,67,30.69,30.49,11,0,11,0.00
2013-10-7,59.4,53.2,44.0,57.3,49.6,39.7,95,88,69,30.77,30.43,10,0,13,0.00
2013-10-8,61.8,48.9,41.3,50.3,39.9,27.2,91,72,49,30.94,30.73,7,0,7,0.00
2013-10-9,63.5,51.4,41.2,50.9,41.3,30.8,86,69,52,30.95,30.80,5,0,10,0.00
2013-10-10,63.7,53.3,47.2,50.0,44.3,33.7,85,72,52,30.82,30.68,11,0,11,0.00
2013-10-11,62.9,55.6,50.4,50.6,47.4,43.5,89,75,53,30.72,30.64,11,0,12,0.00
2013-10-12,62.3,55.7,52.0,54.8,50.9,45.7,94,84,75,30.78,30.64,12,0,12,0.00
2013-10-13,62.6,56.4,52.9,56.3,53.2,50.6,95,89,76,30.90,30.76,10,0,10,0.00
2013-10-14,63.1,54.8,50.6,57.2,51.6,48.4,94,89,77,30.92,30.82,7,0,7,0.00
2013-10-15,68.1,56.3,47.3,55.9,50.8,44.4,93,83,60,30.88,30.70,5,0,5,0.00
2013-10-16,62.9,54.4,46.4,54.2,49.5,43.8,94,84,69,30.75,30.61,5,0,5,0.00
2013-10-17,60.7,55.0,47.5,57.0,52.1,44.9,95,90,83,30.64,30.46,6,0,6,0.00
2013-10-18,61.4,49.7,37.9,49.1,43.5,35.4,93,81,48,30.72,30.60,10,0,10,0.00
2013-10-19,57.2,49.8,42.3,48.2,43.5,34.6,98,80,48,30.64,30.51,10,0,10,0.00
2013-10-20,56.6,43.6,31.1,37.7,32.9,23.2,89,69,33,30.87,30.61,7,0,7,0.00
2013-10-21,59.7,47.5,37.5,45.9,40.5,35.0,93,79,44,30.89,30.68,10,0,10,0.00
2013-10-22,59.5,49.9,45.3,43.8,40.6,35.3,85,71,50,30.69,30.47,5,0,7,0.00
2013-10-23,45.8,37.2,27.6,39.2,31.4,22.3,89,80,70,30.78,30.42,18,0,18,0.00
2013-10-24,40.0,31.7,26.0,31.4,26.2,21.1,88,80,64,30.94,30.75,12,0,14,0.06
2013-10-25,30.5,26.2,22.3,27.1,21.4,17.3,88,82,73,31.21,30.92,16,0,16,0.00
2013-10-26,47.9,36.9,22.4,42.1,24.6,12.6,87,63,37,31.19,30.74,9,0,9,0.11
2013-10-27,54.6,45.3,37.6,44.3,38.0,32.7,88,76,53,30.83,30.75,12,0,12,0.03
2013-10-28,55.4,49.3,46.0,48.3,45.0,43.1,94,85,75,30.98,30.76,4,0,4,0.02
2013-10-29,60.2,51.0,44.0,48.5,45.0,41.8,94,81,58,31.04,30.92,9,0,9,0.02
2013-10-30,63.2,54.4,49.0,51.3,48.2,44.5,91,80,64,30.96,30.84,7,0,7,0.01
2013-10-31,54.4,52.9,51.0,53.0,49.9,48.4,95,90,82,30.84,30.45,12,0,12,0.00
2013-11-1,64.7,55.3,46.4,53.2,45.7,32.3,95,73,32,30.47,30.30,10,0,12,0.01
2013-11-2,48.7,43.0,37.3,40.4,35.0,29.9,83,73,61,30.73,30.38,13,0,13,0.00
2013-11-3,44.2,36.5,32.0,32.8,29.1,26.0,87,75,59,31.13,30.72,14,0,14,0.00
2013-11-4,46.4,37.2,29.7,29.0,26.7,24.6,83,67,47,31.27,31.12,7,0,9,0.01
2013-11-5,55.1,42.0,30.5,45.2,27.9,18.7,94,61,27,31.28,31.05,4,0,4,0.02
2013-11-6,53.1,48.2,45.4,46.9,45.0,42.9,95,89,74,31.09,30.82,7,0,7,0.03
2013-11-7,51.5,41.5,29.1,49.0,38.1,25.3,93,88,81,30.86,30.67,14,0,16,0.00
2013-11-8,37.7,31.1,26.2,25.4,20.1,13.6,86,64,46,31.12,30.86,15,0,15,0.07
2013-11-9,53.2,40.3,28.9,28.0,18.4,2.8,66,44,17,31.13,30.86,7,0,7,0.14
2013-11-10,50.9,42.9,32.1,35.2,26.2,8.9,74,53,22,30.97,30.83,15,0,15,0.01
2013-11-11,54.2,45.0,30.9,23.0,13.2,-5.3,63,29,14,31.02,30.80,7,0,7,0.00
2013-11-12,46.7,31.0,15.5,32.1,19.8,10.7,94,67,23,31.25,30.76,17,1,17,0.00
2013-11-13,33.2,23.3,12.8,14.6,8.7,-2.5,84,56,26,31.40,31.23,14,0,14,0.00
2013-11-14,48.4,38.5,29.4,17.5,12.1,3.9,51,34,27,31.23,31.01,10,0,10,0.00
2013-11-15,52.2,43.9,34.6,41.5,29.5,4.2,94,63,19,31.04,30.86,7,0,7,0.33
2013-11-16,56.0,48.0,41.9,50.1,45.0,40.5,95,90,76,30.92,30.83,6,0,6,0.02
2013-11-17,54.0,49.4,47.0,52.9,48.1,45.6,96,95,95,30.84,30.53,7,0,7,0.37
2013-11-18,55.1,45.7,33.1,54.0,37.4,24.4,96,74,51,30.73,30.48,16,0,16,0.12
2013-11-19,39.9,32.8,25.4,24.4,20.1,13.2,82,61,40,31.01,30.72,15,0,15,0.00
2013-11-20,40.8,31.6,23.7,25.0,22.4,19.6,85,69,47,31.21,30.99,11,0,11,0.00
2013-11-21,47.5,41.3,28.0,44.9,38.7,23.2,95,91,81,31.24,31.06,5,0,7,0.08
2013-11-22,57.3,50.3,45.4,53.1,48.1,44.1,96,92,81,31.06,30.77,9,0,9,0.18
2013-11-23,48.2,35.9,20.0,46.3,32.4,13.5,95,87,67,30.97,30.76,19,0,19,0.05
2013-11-24,20.9,15.2,9.4,14.1,3.3,-10.2,81,61,28,31.38,30.96,18,1,18,0.00
2013-11-25,30.0,22.9,15.3,22.7,7.4,-0.1,88,52,33,31.34,31.06,4,0,4,0.00
2013-11-26,44.8,37.5,25.7,43.5,36.0,22.5,95,94,88,31.06,30.32,9,0,10,2.37
2013-11-27,37.3,20.1,10.6,35.7,17.6,7.4,94,90,87,30.99,30.31,22,2,22,0.11
2013-11-28,34.4,24.0,9.1,26.0,14.0,0.9,88,68,27,31.27,30.99,12,0,12,0.08
2013-11-29,42.6,33.4,24.7,23.4,16.0,0.8,77,51,20,31.35,31.15,10,0,11,0.03
2013-11-30,39.6,29.9,21.3,25.5,20.2,14.0,82,68,41,31.37,31.02,5,0,5,0.00
2013-12-1,47.2,38.5,33.1,33.4,27.1,13.4,83,64,40,31.03,30.71,10,0,10,0.00
2013-12-2,38.2,35.7,33.0,35.3,30.5,27.5,92,81,78,30.72,30.62,0,0,0,0.01